createdAt,value
2019-03-20T00:00:04.963Z,11.70
2019-03-20T00:01:04.855Z,8.20
2019-03-20T00:02:04.816Z,10.90
2019-03-20T00:03:04.770Z,11.50
2019-03-20T00:04:04.734Z,9.00
2019-03-20T00:05:04.687Z,7.50
2019-03-20T00:06:04.643Z,10.60
2019-03-20T00:07:04.599Z,10.10
2019-03-20T00:08:04.559Z,11.90
2019-03-20T00:09:04.513Z,12.10
2019-03-20T00:10:04.472Z,13.10
2019-03-20T00:11:04.429Z,11.20
2019-03-20T00:12:04.388Z,11.20
2019-03-20T00:13:04.340Z,8.30
2019-03-20T00:14:04.303Z,8.50
2019-03-20T00:15:04.260Z,12.10
2019-03-20T00:16:04.216Z,11.60
2019-03-20T00:17:04.217Z,12.90
2019-03-20T00:18:04.126Z,11.60
2019-03-20T00:20:36.175Z,13.80
2019-03-20T00:21:36.108Z,9.50
2019-03-20T00:22:36.067Z,10.90
2019-03-20T00:23:36.029Z,10.90
2019-03-20T00:24:35.980Z,11.20
2019-03-20T00:25:35.937Z,8.60
2019-03-20T00:26:35.893Z,9.40
2019-03-20T00:27:35.856Z,10.30
2019-03-20T00:28:35.807Z,8.90
2019-03-20T00:29:35.765Z,7.40
2019-03-20T00:30:35.723Z,10.60
2019-03-20T00:31:35.677Z,8.50
2019-03-20T00:32:35.635Z,8.80
2019-03-20T00:33:35.592Z,14.00
2019-03-20T00:34:35.549Z,13.70
2019-03-20T00:35:35.510Z,10.60
2019-03-20T00:36:35.466Z,6.00
2019-03-20T00:37:35.420Z,8.00
2019-03-20T00:38:35.377Z,9.50
2019-03-20T00:39:35.334Z,10.50
2019-03-20T00:40:35.291Z,12.70
2019-03-20T00:41:35.248Z,8.30
2019-03-20T00:42:35.563Z,10.20
2019-03-20T00:43:35.162Z,10.10
2019-03-20T00:44:35.120Z,11.30
2019-03-20T00:45:35.078Z,10.90
2019-03-20T00:46:35.033Z,8.70
2019-03-20T00:47:34.990Z,10.00
2019-03-20T00:48:34.947Z,10.60
2019-03-20T00:49:34.905Z,9.60
2019-03-20T00:50:34.860Z,9.70
2019-03-20T00:51:34.819Z,12.70
2019-03-20T00:52:34.778Z,8.40
2019-03-20T00:53:34.734Z,9.80
2019-03-20T00:54:34.688Z,9.80
2019-03-20T00:55:34.645Z,10.10
2019-03-20T00:56:34.603Z,8.30
2019-03-20T00:57:34.598Z,10.10
2019-03-20T00:58:34.515Z,7.90
2019-03-20T00:59:34.473Z,7.60
2019-03-20T01:00:34.431Z,8.00
2019-03-20T01:01:34.399Z,9.70
2019-03-20T01:02:34.343Z,12.90
2019-03-20T01:03:34.300Z,8.00
2019-03-20T01:04:34.257Z,9.40
2019-03-20T01:05:34.216Z,8.60
2019-03-20T01:06:34.171Z,9.80
2019-03-20T01:07:34.128Z,7.70
2019-03-20T01:08:34.087Z,10.00
2019-03-20T01:09:34.042Z,12.10
2019-03-20T01:10:33.998Z,9.80
2019-03-20T01:11:33.957Z,9.00
2019-03-20T01:12:33.914Z,8.80
2019-03-20T01:13:33.872Z,9.20
2019-03-20T01:14:33.830Z,8.20
2019-03-20T01:15:33.783Z,11.80
2019-03-20T01:16:33.742Z,8.70
2019-03-20T01:17:33.704Z,9.90
2019-03-20T01:18:33.655Z,9.70
2019-03-20T01:19:33.612Z,11.60
2019-03-20T01:20:33.605Z,7.60
2019-03-20T01:21:33.530Z,7.70
2019-03-20T01:22:33.482Z,7.90
2019-03-20T01:23:33.439Z,8.40
2019-03-20T01:24:33.399Z,12.00
2019-03-20T01:25:35.090Z,7.90
2019-03-20T01:26:33.312Z,10.90
2019-03-20T01:27:33.267Z,9.50
2019-03-20T01:28:33.225Z,7.60
2019-03-20T01:29:33.184Z,7.50
2019-03-20T01:30:33.138Z,7.20
2019-03-20T01:31:33.096Z,7.90
2019-03-20T01:32:33.052Z,6.90
2019-03-20T01:33:33.008Z,11.30
2019-03-20T01:34:32.965Z,9.10
2019-03-20T01:35:32.993Z,8.80
2019-03-20T01:36:32.880Z,9.20
2019-03-20T01:37:32.842Z,9.00
2019-03-20T01:38:32.793Z,6.80
2019-03-20T01:39:32.751Z,9.50
2019-03-20T01:40:32.711Z,8.30
2019-03-20T01:41:37.832Z,7.60
2019-03-20T01:42:32.620Z,8.40
2019-03-20T01:43:32.579Z,9.50
2019-03-20T01:44:32.537Z,7.80
2019-03-20T01:45:32.495Z,9.10
2019-03-20T01:46:32.449Z,10.60
2019-03-20T01:47:32.406Z,7.60
2019-03-20T01:48:32.363Z,6.90
2019-03-20T01:49:32.321Z,10.80
2019-03-20T01:50:32.276Z,10.40
2019-03-20T01:51:32.234Z,8.20
2019-03-20T01:52:32.189Z,10.30
2019-03-20T01:53:32.152Z,7.90
2019-03-20T01:54:32.105Z,10.00
2019-03-20T01:55:32.062Z,9.60
2019-03-20T01:56:32.018Z,9.40
2019-03-20T01:57:31.977Z,9.30
2019-03-20T01:58:31.931Z,7.50
2019-03-20T01:59:31.889Z,10.40
2019-03-20T02:00:31.850Z,9.80
2019-03-20T02:01:31.806Z,7.00
2019-03-20T02:02:31.765Z,7.60
2019-03-20T02:03:31.725Z,10.70
2019-03-20T02:04:31.679Z,10.60
2019-03-20T02:05:36.145Z,9.20
2019-03-20T02:06:31.586Z,7.40
2019-03-20T02:07:31.551Z,8.20
2019-03-20T02:08:31.504Z,11.80
2019-03-20T02:09:31.458Z,9.90
2019-03-20T02:10:31.415Z,11.30
2019-03-20T02:11:31.371Z,8.90
2019-03-20T02:12:31.330Z,8.20
2019-03-20T02:13:31.292Z,8.30
2019-03-20T02:14:31.248Z,7.40
2019-03-20T02:15:38.714Z,10.50
2019-03-20T02:16:31.160Z,7.60
2019-03-20T02:17:31.114Z,7.30
2019-03-20T02:18:31.067Z,6.50
2019-03-20T02:19:31.024Z,9.00
2019-03-20T02:20:30.987Z,10.70
2019-03-20T02:21:30.948Z,8.10
2019-03-20T02:22:30.903Z,7.30
2019-03-20T02:23:30.854Z,8.60
2019-03-20T02:24:30.812Z,8.90
2019-03-20T02:25:32.386Z,11.10
2019-03-20T02:26:30.729Z,9.40
2019-03-20T02:27:30.686Z,6.90
2019-03-20T02:28:30.641Z,10.60
2019-03-20T02:29:30.597Z,8.80
2019-03-20T02:30:30.551Z,8.40
2019-03-20T02:31:30.519Z,8.60
2019-03-20T02:32:30.467Z,9.90
2019-03-20T02:33:30.429Z,12.90
2019-03-20T02:34:30.383Z,9.50
2019-03-20T02:35:30.340Z,8.90
2019-03-20T02:36:30.296Z,8.90
2019-03-20T02:37:30.250Z,11.10
2019-03-20T02:38:30.210Z,8.90
2019-03-20T02:39:30.168Z,9.60
2019-03-20T02:40:30.122Z,10.50
2019-03-20T02:41:30.118Z,10.30
2019-03-20T02:42:30.031Z,8.90
2019-03-20T02:43:29.991Z,8.60
2019-03-20T02:44:29.947Z,10.50
2019-03-20T02:45:29.907Z,9.60
2019-03-20T02:46:29.863Z,9.80
2019-03-20T02:47:29.822Z,11.50
2019-03-20T02:48:29.779Z,7.90
2019-03-20T02:49:29.732Z,9.00
2019-03-20T02:50:29.687Z,9.00
2019-03-20T02:51:29.642Z,7.30
2019-03-20T02:52:29.615Z,10.10
2019-03-20T02:53:29.561Z,11.10
2019-03-20T02:54:29.527Z,9.30
2019-03-20T02:55:29.469Z,10.40
2019-03-20T02:56:29.429Z,6.20
2019-03-20T02:57:29.392Z,9.40
2019-03-20T02:58:29.375Z,9.50
2019-03-20T02:59:29.301Z,8.40
2019-03-20T03:00:29.257Z,9.00
2019-03-20T03:01:29.217Z,8.80
2019-03-20T03:02:29.166Z,8.70
2019-03-20T03:03:29.125Z,8.40
2019-03-20T03:04:29.079Z,8.60
2019-03-20T03:05:29.042Z,7.30
2019-03-20T03:06:28.998Z,6.50
2019-03-20T03:07:28.954Z,8.50
2019-03-20T03:08:28.912Z,10.70
2019-03-20T03:09:28.862Z,11.60
2019-03-20T03:10:28.821Z,7.60
2019-03-20T03:11:28.779Z,8.10
2019-03-20T03:12:28.747Z,6.80
2019-03-20T03:13:28.689Z,11.00
2019-03-20T03:14:28.646Z,8.60
2019-03-20T03:15:28.606Z,9.40
2019-03-20T03:16:28.559Z,8.00
2019-03-20T03:17:28.522Z,11.30
2019-03-20T03:18:28.477Z,9.90
2019-03-20T03:19:28.432Z,10.40
2019-03-20T03:20:28.396Z,10.90
2019-03-20T03:21:28.345Z,9.60
2019-03-20T03:22:28.338Z,9.40
2019-03-20T03:23:28.259Z,9.70
2019-03-20T03:24:28.213Z,11.20
2019-03-20T03:25:28.177Z,10.30
2019-03-20T03:26:28.132Z,9.80
2019-03-20T03:27:28.084Z,9.90
2019-03-20T03:28:28.039Z,6.50
2019-03-20T03:29:28.002Z,6.80
2019-03-20T03:30:28.122Z,9.40
2019-03-20T03:43:49.386Z,4.30
2019-03-20T03:44:49.312Z,6.60
2019-03-20T03:45:49.269Z,9.00
2019-03-20T03:46:49.215Z,8.80
2019-03-20T03:47:49.172Z,12.50
2019-03-20T03:48:49.130Z,9.20
2019-03-20T03:49:49.085Z,9.20
2019-03-20T03:50:49.042Z,13.40
2019-03-20T03:51:49.024Z,10.70
2019-03-20T03:52:48.952Z,11.40
2019-03-20T03:53:48.904Z,10.10
2019-03-20T03:54:48.856Z,11.40
2019-03-20T03:55:48.815Z,9.70
2019-03-20T03:56:48.797Z,7.50
2019-03-20T03:57:48.726Z,9.80
2019-03-20T03:58:48.684Z,9.80
2019-03-20T03:59:48.636Z,10.20
2019-03-20T04:00:48.596Z,8.70
2019-03-20T04:01:48.549Z,8.50
2019-03-20T04:02:48.544Z,6.60
2019-03-20T04:03:48.456Z,10.00
2019-03-20T04:04:48.417Z,5.90
2019-03-20T04:05:48.380Z,8.60
2019-03-20T04:06:48.332Z,13.10
2019-03-20T04:07:48.287Z,7.70
2019-03-20T04:08:48.241Z,6.90
2019-03-20T04:09:48.199Z,8.00
2019-03-20T04:10:48.156Z,7.60
2019-03-20T04:11:48.107Z,8.80
2019-03-20T04:12:48.067Z,7.80
2019-03-20T04:13:48.029Z,8.50
2019-03-20T04:14:47.975Z,6.70
2019-03-20T04:15:47.958Z,9.50
2019-03-20T04:16:47.894Z,10.50
2019-03-20T04:17:47.850Z,9.80
2019-03-20T04:18:47.800Z,11.40
2019-03-20T04:19:47.764Z,17.20
2019-03-20T04:20:47.718Z,7.70
2019-03-20T04:21:47.681Z,7.50
2019-03-20T04:22:47.718Z,10.30
2019-03-20T04:23:47.582Z,9.90
2019-03-20T04:24:47.542Z,6.40
2019-03-20T04:25:47.500Z,6.60
2019-03-20T04:26:47.452Z,8.10
2019-03-20T04:27:47.447Z,9.80
2019-03-20T04:28:47.370Z,6.50
2019-03-20T04:29:47.331Z,7.30
2019-03-20T04:30:47.285Z,5.90
2019-03-20T04:31:47.235Z,8.10
2019-03-20T04:32:47.196Z,6.90
2019-03-20T04:33:47.152Z,8.00
2019-03-20T04:34:47.112Z,7.00
2019-03-20T04:35:47.060Z,6.00
2019-03-20T04:36:48.212Z,8.60
2019-03-20T04:37:46.977Z,7.70
2019-03-20T04:38:46.931Z,6.40
2019-03-20T04:39:46.893Z,11.20
2019-03-20T04:40:46.848Z,9.00
2019-03-20T04:41:46.875Z,9.30
2019-03-20T04:42:46.765Z,9.00
2019-03-20T04:43:46.714Z,11.30
2019-03-20T04:44:46.673Z,8.50
2019-03-20T04:45:46.630Z,7.50
2019-03-20T04:46:46.586Z,11.40
2019-03-20T04:47:46.551Z,11.50
2019-03-20T04:48:46.502Z,9.30
2019-03-20T04:49:46.456Z,8.60
2019-03-20T04:50:46.411Z,9.40
2019-03-20T04:51:46.372Z,9.10
2019-03-20T04:52:46.331Z,7.90
2019-03-20T04:53:46.284Z,8.60
2019-03-20T04:54:46.279Z,10.60
2019-03-20T04:55:46.199Z,8.80
2019-03-20T04:56:46.160Z,6.70
2019-03-20T04:57:46.213Z,7.80
2019-03-20T04:58:46.066Z,5.90
2019-03-20T04:59:46.030Z,9.20
2019-03-20T05:00:45.988Z,11.30
2019-03-20T05:01:45.942Z,8.00
2019-03-20T05:02:45.900Z,7.90
2019-03-20T05:03:45.853Z,8.10
2019-03-20T05:04:45.808Z,7.50
2019-03-20T05:05:45.769Z,8.70
2019-03-20T05:06:45.730Z,7.10
2019-03-20T05:07:45.682Z,6.80
2019-03-20T05:08:45.636Z,7.80
2019-03-20T05:09:45.596Z,7.80
2019-03-20T05:10:45.549Z,5.90
2019-03-20T05:11:45.513Z,8.50
2019-03-20T05:12:45.467Z,7.10
2019-03-20T05:13:45.424Z,10.20
2019-03-20T05:14:45.382Z,7.90
2019-03-20T05:15:45.339Z,10.80
2019-03-20T05:16:45.296Z,8.70
2019-03-20T05:17:45.248Z,8.30
2019-03-20T05:18:45.204Z,8.00
2019-03-20T05:19:45.166Z,10.30
2019-03-20T05:20:45.126Z,9.90
2019-03-20T05:21:45.077Z,7.80
2019-03-20T05:22:45.030Z,8.00
2019-03-20T05:23:45.017Z,9.70
2019-03-20T05:24:44.948Z,7.80
2019-03-20T05:25:44.906Z,9.80
2019-03-20T05:26:44.869Z,5.20
2019-03-20T05:27:44.819Z,9.00
2019-03-20T05:28:44.777Z,9.10
2019-03-20T05:29:44.732Z,9.70
2019-03-20T05:30:44.688Z,8.60
2019-03-20T05:31:44.649Z,8.80
2019-03-20T05:32:44.604Z,10.10
2019-03-20T05:33:44.561Z,9.80
2019-03-20T05:34:44.520Z,10.40
2019-03-20T05:35:44.470Z,8.00
2019-03-20T05:36:44.429Z,10.10
2019-03-20T05:37:44.388Z,9.90
2019-03-20T05:38:44.348Z,11.00
2019-03-20T05:39:44.299Z,9.40
2019-03-20T05:40:44.258Z,8.10
2019-03-20T05:41:44.213Z,8.00
2019-03-20T05:42:44.171Z,7.40
2019-03-20T05:43:44.131Z,6.80
2019-03-20T05:44:44.086Z,11.80
2019-03-20T05:45:44.046Z,10.40
2019-03-20T05:46:44.005Z,9.90
2019-03-20T05:47:43.954Z,11.00
2019-03-20T05:48:43.916Z,10.20
2019-03-20T05:49:43.869Z,7.80
2019-03-20T05:50:43.824Z,11.20
2019-03-20T05:51:43.785Z,9.80
2019-03-20T05:52:43.741Z,8.20
2019-03-20T05:53:43.695Z,9.10
2019-03-20T05:54:43.653Z,10.50
2019-03-20T05:55:43.613Z,11.40
2019-03-20T05:56:43.570Z,9.10
2019-03-20T05:57:43.529Z,10.20
2019-03-20T05:58:43.484Z,10.00
2019-03-20T05:59:43.435Z,7.70
2019-03-20T06:00:43.396Z,11.20
2019-03-20T06:01:43.350Z,11.50
2019-03-20T06:02:43.310Z,10.80
2019-03-20T06:03:43.267Z,10.20
2019-03-20T06:04:43.224Z,10.80
2019-03-20T06:05:43.180Z,9.30
2019-03-20T06:06:43.139Z,9.40
2019-03-20T06:07:43.090Z,11.30
2019-03-20T06:08:43.048Z,11.70
2019-03-20T06:09:43.006Z,11.10
2019-03-20T06:10:42.967Z,10.60
2019-03-20T06:11:42.918Z,10.20
2019-03-20T06:12:42.886Z,12.40
2019-03-20T06:13:42.835Z,7.80
2019-03-20T06:14:42.787Z,10.60
2019-03-20T06:15:42.754Z,8.10
2019-03-20T06:16:42.707Z,9.20
2019-03-20T06:17:42.661Z,11.50
2019-03-20T06:18:42.622Z,7.50
2019-03-20T06:19:51.232Z,7.50
2019-03-20T06:21:46.971Z,11.80
2019-03-20T06:22:46.908Z,8.80
2019-03-20T06:23:46.859Z,12.10
2019-03-20T06:24:46.816Z,9.50
2019-03-20T06:25:46.778Z,8.60
2019-03-20T06:26:46.734Z,13.70
2019-03-20T06:27:46.688Z,10.70
2019-03-20T06:28:46.644Z,11.70
2019-03-20T06:29:46.604Z,12.80
2019-03-20T06:30:46.563Z,12.60
2019-03-20T06:31:46.537Z,13.40
2019-03-20T06:32:46.478Z,18.40
2019-03-20T06:33:46.429Z,15.30
2019-03-20T06:34:48.775Z,16.10
2019-03-20T06:35:46.353Z,12.90
2019-03-20T06:36:46.301Z,16.50
2019-03-20T06:37:46.265Z,15.30
2019-03-20T06:38:46.218Z,14.30
2019-03-20T06:39:46.176Z,12.10
2019-03-20T06:40:46.131Z,12.30
2019-03-20T06:41:46.087Z,16.50
2019-03-20T06:42:46.056Z,12.90
2019-03-20T06:43:46.006Z,14.30
2019-03-20T06:44:45.960Z,8.60
2019-03-20T06:45:45.916Z,9.30
2019-03-20T06:46:45.872Z,10.40
2019-03-20T06:47:45.849Z,9.40
2019-03-20T06:48:45.787Z,12.40
2019-03-20T06:49:45.747Z,10.50
2019-03-20T06:50:45.707Z,9.20
2019-03-20T06:51:45.663Z,10.80
2019-03-20T06:52:45.622Z,12.30
2019-03-20T06:53:45.576Z,10.20
2019-03-20T06:54:45.532Z,14.10
2019-03-20T06:55:45.487Z,9.40
2019-03-20T06:56:45.446Z,7.80
2019-03-20T06:57:45.407Z,8.80
2019-03-20T06:58:45.367Z,11.30
2019-03-20T06:59:45.317Z,10.10
2019-03-20T07:00:45.281Z,8.20
2019-03-20T07:01:45.237Z,9.10
2019-03-20T07:02:45.200Z,8.90
2019-03-20T07:03:45.154Z,10.50
2019-03-20T07:04:45.109Z,7.90
2019-03-20T07:05:45.065Z,8.80
2019-03-20T07:06:45.021Z,12.10
2019-03-20T07:07:44.979Z,11.70
2019-03-20T07:08:44.939Z,10.90
2019-03-20T07:09:44.898Z,10.40
2019-03-20T07:10:44.858Z,9.20
2019-03-20T07:11:44.815Z,12.10
2019-03-20T07:12:44.777Z,7.50
2019-03-20T07:13:44.737Z,7.40
2019-03-20T07:14:44.685Z,7.90
2019-03-20T07:15:44.648Z,10.50
2019-03-20T07:16:44.605Z,7.60
2019-03-20T07:17:44.559Z,9.50
2019-03-20T07:18:44.514Z,8.10
2019-03-20T07:19:44.476Z,10.00
2019-03-20T07:20:44.434Z,11.50
2019-03-20T07:21:44.396Z,11.90
2019-03-20T07:22:44.354Z,7.60
2019-03-20T07:23:44.323Z,7.70
2019-03-20T07:24:44.268Z,8.30
2019-03-20T07:25:44.230Z,12.30
2019-03-20T07:26:44.180Z,8.80
2019-03-20T07:27:44.138Z,7.70
2019-03-20T07:28:44.098Z,6.60
2019-03-20T07:29:44.058Z,12.10
2019-03-20T07:30:44.019Z,10.30
2019-03-20T07:31:43.971Z,6.70
2019-03-20T07:32:43.935Z,7.90
2019-03-20T07:33:43.892Z,8.10
2019-03-20T07:34:43.853Z,8.20
2019-03-20T07:35:43.811Z,6.90
2019-03-20T07:36:43.765Z,10.10
2019-03-20T07:37:43.736Z,8.00
2019-03-20T07:38:43.682Z,7.30
2019-03-20T07:39:43.638Z,6.70
2019-03-20T07:40:43.600Z,7.70
2019-03-20T07:41:43.559Z,7.10
2019-03-20T07:42:43.520Z,9.80
2019-03-20T07:43:43.482Z,7.70
2019-03-20T07:44:43.436Z,12.30
2019-03-20T07:45:43.396Z,8.10
2019-03-20T07:46:43.350Z,9.70
2019-03-20T07:47:43.313Z,9.70
2019-03-20T07:48:43.271Z,8.40
2019-03-20T07:49:43.228Z,11.10
2019-03-20T07:50:43.186Z,8.20
2019-03-20T07:51:43.143Z,8.10
2019-03-20T07:52:43.105Z,7.30
2019-03-20T07:53:43.067Z,7.40
2019-03-20T07:54:43.027Z,8.80
2019-03-20T07:55:42.985Z,11.00
2019-03-20T07:56:42.942Z,9.20
2019-03-20T07:57:42.900Z,6.10
2019-03-20T07:58:42.857Z,7.50
2019-03-20T07:59:42.816Z,8.70
2019-03-20T08:00:42.776Z,7.30
2019-03-20T08:01:42.738Z,7.20
2019-03-20T08:02:42.699Z,9.80
2019-03-20T08:03:42.651Z,10.40
2019-03-20T08:04:42.613Z,7.40
2019-03-20T08:05:42.573Z,7.90
2019-03-20T08:06:42.535Z,6.00
2019-03-20T08:07:42.497Z,9.80
2019-03-20T08:08:42.452Z,7.70
2019-03-20T08:09:42.409Z,8.60
2019-03-20T08:10:42.367Z,7.90
2019-03-20T08:11:42.326Z,7.70
2019-03-20T08:12:42.287Z,10.10
2019-03-20T08:13:42.248Z,6.90
2019-03-20T08:14:42.215Z,9.00
2019-03-20T08:15:42.168Z,11.00
2019-03-20T08:16:42.126Z,8.20
2019-03-20T08:17:42.083Z,7.70
2019-03-20T08:18:42.042Z,7.80
2019-03-20T08:19:42.011Z,8.40
2019-03-20T08:20:41.968Z,9.30
2019-03-20T08:21:41.921Z,10.50
2019-03-20T08:22:41.879Z,8.80
2019-03-20T08:23:41.842Z,8.10
2019-03-20T08:24:41.799Z,10.60
2019-03-20T08:25:41.763Z,6.10
2019-03-20T08:26:41.723Z,10.70
2019-03-20T08:27:41.683Z,7.20
2019-03-20T08:28:41.640Z,7.90
2019-03-20T08:29:41.598Z,5.70
2019-03-20T08:30:41.568Z,6.70
2019-03-20T08:31:41.517Z,11.00
2019-03-20T08:32:41.477Z,7.30
2019-03-20T08:33:41.444Z,8.80
2019-03-20T08:34:41.401Z,5.60
2019-03-20T08:35:41.355Z,8.90
2019-03-20T08:36:41.316Z,8.30
2019-03-20T08:37:41.278Z,5.50
2019-03-20T08:38:41.242Z,10.20
2019-03-20T08:39:41.200Z,7.60
2019-03-20T08:40:41.163Z,9.00
2019-03-20T08:41:41.115Z,7.00
2019-03-20T08:42:41.075Z,8.70
2019-03-20T08:43:41.041Z,12.40
2019-03-20T08:44:41.000Z,8.10
2019-03-20T08:45:40.959Z,6.70
2019-03-20T08:46:40.923Z,8.70
2019-03-20T08:47:40.905Z,5.60
2019-03-20T08:48:40.837Z,7.20
2019-03-20T08:49:40.820Z,9.10
2019-03-20T08:50:40.754Z,8.30
2019-03-20T08:51:40.723Z,7.90
2019-03-20T08:52:40.676Z,7.30
2019-03-20T08:53:40.635Z,6.80
2019-03-20T08:54:40.594Z,9.80
2019-03-20T08:55:40.555Z,6.60
2019-03-20T08:56:40.516Z,9.10
2019-03-20T08:57:40.479Z,6.50
2019-03-20T08:58:40.441Z,7.20
2019-03-20T08:59:40.404Z,6.80
2019-03-20T09:00:40.360Z,7.40
2019-03-20T09:01:40.318Z,9.30
2019-03-20T09:02:40.291Z,11.70
2019-03-20T09:03:40.243Z,8.40
2019-03-20T09:04:40.198Z,8.20
2019-03-20T09:05:40.161Z,6.20
2019-03-20T09:06:40.122Z,7.90
2019-03-20T09:07:47.090Z,7.70
2019-03-20T09:08:40.040Z,8.10
2019-03-20T09:09:40.004Z,7.60
2019-03-20T09:10:39.966Z,9.00
2019-03-20T09:11:39.930Z,6.20
2019-03-20T09:12:39.883Z,7.90
2019-03-20T09:13:39.855Z,8.20
2019-03-20T09:14:39.803Z,7.80
2019-03-20T09:15:39.759Z,6.20
2019-03-20T09:16:39.722Z,5.60
2019-03-20T09:17:39.685Z,6.60
2019-03-20T09:18:39.656Z,6.10
2019-03-20T09:19:39.626Z,7.40
2019-03-20T09:20:39.567Z,8.80
2019-03-20T09:21:39.525Z,5.30
2019-03-20T09:22:39.487Z,6.80
2019-03-20T09:23:40.844Z,7.70
2019-03-20T09:24:39.411Z,8.60
2019-03-20T09:25:39.368Z,8.80
2019-03-20T09:26:39.330Z,5.50
2019-03-20T09:27:39.288Z,6.40
2019-03-20T09:28:39.253Z,6.70
2019-03-20T09:29:41.129Z,6.00
2019-03-20T09:30:39.176Z,5.90
2019-03-20T09:31:39.136Z,6.30
2019-03-20T09:32:39.095Z,6.40
2019-03-20T09:33:39.054Z,6.50
2019-03-20T09:34:39.013Z,6.60
2019-03-20T09:35:38.973Z,5.20
2019-03-20T09:36:43.201Z,8.50
2019-03-20T09:37:38.901Z,7.40
2019-03-20T09:38:43.327Z,7.00
2019-03-20T09:39:38.818Z,6.90
2019-03-20T09:40:38.782Z,6.60
2019-03-20T09:41:38.743Z,9.20
2019-03-20T09:42:38.705Z,7.60
2019-03-20T09:43:38.668Z,9.60
2019-03-20T09:57:29.206Z,3.90
2019-03-20T09:58:29.132Z,7.70
2019-03-20T09:59:29.095Z,7.30
2019-03-20T10:00:29.051Z,7.70
2019-03-20T10:01:29.006Z,5.80
2019-03-20T10:02:28.961Z,5.50
2019-03-20T10:03:28.920Z,6.90
2019-03-20T10:04:28.882Z,8.10
2019-03-20T10:05:28.842Z,6.10
2019-03-20T10:06:30.225Z,7.60
2019-03-20T10:07:28.765Z,8.10
2019-03-20T10:08:28.719Z,7.00
2019-03-20T10:09:28.679Z,8.60
2019-03-20T10:10:28.636Z,7.60
2019-03-20T10:11:28.637Z,6.80
2019-03-20T10:12:28.558Z,7.60
2019-03-20T10:13:28.522Z,7.50
2019-03-20T10:14:28.484Z,6.00
2019-03-20T10:15:28.446Z,6.20
2019-03-20T10:16:28.401Z,5.70
2019-03-20T10:17:28.364Z,7.20
2019-03-20T10:18:28.326Z,5.40
2019-03-20T10:19:28.287Z,7.50
2019-03-20T10:20:28.247Z,6.80
2019-03-20T10:21:28.204Z,6.90
2019-03-20T10:22:28.165Z,6.00
2019-03-20T10:23:28.128Z,6.30
2019-03-20T10:24:28.089Z,9.70
2019-03-20T10:25:28.051Z,5.20
2019-03-20T10:26:28.020Z,5.60
2019-03-20T10:27:27.975Z,6.10
2019-03-20T10:28:27.935Z,6.20
2019-03-20T10:29:27.897Z,5.10
2019-03-20T10:30:27.858Z,6.20
2019-03-20T10:31:27.824Z,5.40
2019-03-20T10:32:27.781Z,6.40
2019-03-20T10:33:27.741Z,5.60
2019-03-20T10:34:27.700Z,6.20
2019-03-20T10:35:27.663Z,5.50
2019-03-20T10:36:27.627Z,4.90
2019-03-20T10:37:27.592Z,4.90
2019-03-20T10:38:27.553Z,5.50
2019-03-20T10:39:27.515Z,4.50
2019-03-20T10:40:27.475Z,5.40
2019-03-20T10:41:27.434Z,7.50
2019-03-20T10:42:27.396Z,4.60
2019-03-20T10:43:27.357Z,5.00
2019-03-20T10:44:27.321Z,6.10
2019-03-20T10:45:27.285Z,4.90
2019-03-20T10:46:27.249Z,6.50
2019-03-20T10:47:27.205Z,5.40
2019-03-20T10:48:27.168Z,5.30
2019-03-20T10:49:27.132Z,3.80
2019-03-20T10:50:27.097Z,3.30
2019-03-20T10:51:27.058Z,5.40
2019-03-20T10:52:27.028Z,3.80
2019-03-20T10:53:26.977Z,3.50
2019-03-20T10:54:26.939Z,4.30
2019-03-20T10:55:26.923Z,3.00
2019-03-20T10:56:26.876Z,2.40
2019-03-20T10:57:26.830Z,2.00
2019-03-20T10:58:26.799Z,3.60
2019-03-20T10:59:26.792Z,2.40
2019-03-20T11:00:26.718Z,4.00
2019-03-20T11:01:26.678Z,3.90
2019-03-20T11:02:26.637Z,4.00
2019-03-20T11:03:26.608Z,3.20
2019-03-20T11:04:26.580Z,3.60
2019-03-20T11:05:26.526Z,3.80
2019-03-20T11:06:26.490Z,4.50
2019-03-20T11:07:26.450Z,3.50
2019-03-20T11:08:26.415Z,3.00
2019-03-20T11:09:26.379Z,2.60
2019-03-20T11:10:26.342Z,2.90
2019-03-20T11:11:27.341Z,4.90
2019-03-20T11:12:26.266Z,2.50
2019-03-20T11:13:26.229Z,2.90
2019-03-20T11:14:26.199Z,2.70
2019-03-20T11:15:26.150Z,3.30
2019-03-20T11:16:26.119Z,5.30
2019-03-20T11:17:26.082Z,2.50
2019-03-20T11:18:26.048Z,2.40
2019-03-20T11:19:26.003Z,2.40
2019-03-20T11:20:25.969Z,3.10
2019-03-20T11:21:25.934Z,2.90
2019-03-20T11:22:25.893Z,2.90
2019-03-20T11:23:25.856Z,3.20
2019-03-20T11:24:25.817Z,3.50
2019-03-20T11:25:25.784Z,3.90
2019-03-20T11:26:25.740Z,3.40
2019-03-20T11:27:27.566Z,3.00
2019-03-20T11:28:25.666Z,2.00
2019-03-20T11:29:25.629Z,2.70
2019-03-20T11:30:25.594Z,3.70
2019-03-20T11:31:25.556Z,3.20
2019-03-20T11:32:25.518Z,2.40
2019-03-20T11:33:25.480Z,3.90
2019-03-20T11:34:25.450Z,2.90
2019-03-20T11:35:25.407Z,3.10
2019-03-20T11:36:25.371Z,3.20
2019-03-20T11:37:25.329Z,2.30
2019-03-20T11:38:25.289Z,2.40
2019-03-20T11:39:29.548Z,4.40
2019-03-20T11:40:25.218Z,3.30
2019-03-20T11:41:25.181Z,4.90
2019-03-20T11:42:25.146Z,2.90
2019-03-20T11:43:25.110Z,2.70
2019-03-20T11:44:25.069Z,2.70
2019-03-20T11:45:25.030Z,2.50
2019-03-20T11:46:24.992Z,1.90
2019-03-20T11:47:24.954Z,2.70
2019-03-20T11:48:24.919Z,1.40
2019-03-20T11:49:24.883Z,1.50
2019-03-20T11:50:24.847Z,1.70
2019-03-20T11:51:24.805Z,3.70
2019-03-20T11:52:24.770Z,1.70
2019-03-20T11:53:24.735Z,2.20
2019-03-20T11:54:24.700Z,1.90
2019-03-20T11:55:24.707Z,3.20
2019-03-20T11:56:24.624Z,2.30
2019-03-20T11:57:24.585Z,2.80
2019-03-20T11:58:24.547Z,2.30
2019-03-20T11:59:24.513Z,1.70
2019-03-20T12:00:24.474Z,1.60
2019-03-20T12:01:24.440Z,1.80
2019-03-20T12:02:28.506Z,1.80
2019-03-20T12:03:24.367Z,1.70
2019-03-20T12:04:24.328Z,2.60
2019-03-20T12:05:24.292Z,1.90
2019-03-20T12:06:24.252Z,1.90
2019-03-20T12:07:24.221Z,2.00
2019-03-20T12:08:24.181Z,2.20
2019-03-20T12:09:24.142Z,2.30
2019-03-20T12:10:24.105Z,3.00
2019-03-20T12:11:24.065Z,3.20
2019-03-20T12:12:24.031Z,2.10
2019-03-20T12:13:24.127Z,1.90
2019-03-20T12:14:23.962Z,2.50
2019-03-20T12:15:23.926Z,2.80
2019-03-20T12:16:23.886Z,2.00
2019-03-20T12:17:23.853Z,2.70
2019-03-20T12:18:23.808Z,2.50
2019-03-20T12:19:23.772Z,3.80
2019-03-20T12:20:32.622Z,2.20
2019-03-20T12:22:37.373Z,3.40
2019-03-20T12:23:28.089Z,2.20
2019-03-20T12:24:28.071Z,2.40
2019-03-20T12:25:28.024Z,2.40
2019-03-20T12:26:27.987Z,2.60
2019-03-20T12:27:27.954Z,5.10
2019-03-20T12:28:27.921Z,3.80
2019-03-20T12:29:27.870Z,3.40
2019-03-20T12:30:27.833Z,2.40
2019-03-20T12:31:27.965Z,3.60
2019-03-20T12:32:27.757Z,2.70
2019-03-20T12:33:27.726Z,2.50
2019-03-20T12:34:27.691Z,2.70
2019-03-20T12:35:27.649Z,3.80
2019-03-20T12:36:27.614Z,2.20
2019-03-20T12:37:27.573Z,2.40
2019-03-20T12:38:27.534Z,2.10
2019-03-20T12:39:27.505Z,3.30
2019-03-20T12:40:27.468Z,3.50
2019-03-20T12:41:27.424Z,3.60
2019-03-20T12:42:27.407Z,5.80
2019-03-20T12:43:27.353Z,3.50
2019-03-20T12:44:27.315Z,3.10
2019-03-20T12:45:27.282Z,2.80
2019-03-20T12:46:40.693Z,2.90
2019-03-20T12:47:27.209Z,2.30
2019-03-20T12:48:27.169Z,2.50
2019-03-20T12:49:27.130Z,2.50
2019-03-20T12:50:27.093Z,3.30
2019-03-20T12:51:27.056Z,3.50
2019-03-20T12:52:27.019Z,2.10
2019-03-20T12:53:27.037Z,3.60
2019-03-20T12:54:26.953Z,2.00
2019-03-20T12:55:26.911Z,3.10
2019-03-20T12:56:26.883Z,3.80
2019-03-20T12:57:26.838Z,2.70
2019-03-20T12:58:26.804Z,3.30
2019-03-20T12:59:26.766Z,2.00
2019-03-20T13:00:27.606Z,4.00
2019-03-20T13:01:26.693Z,1.80
2019-03-20T13:02:26.668Z,3.70
2019-03-20T13:03:26.615Z,2.80
2019-03-20T13:04:26.588Z,2.40
2019-03-20T13:05:26.550Z,2.80
2019-03-20T13:06:26.511Z,3.30
2019-03-20T13:07:26.474Z,4.30
2019-03-20T13:08:26.438Z,2.80
2019-03-20T13:09:26.397Z,2.70
2019-03-20T13:10:26.359Z,2.80
2019-03-20T13:11:26.326Z,2.70
2019-03-20T13:12:26.288Z,2.20
2019-03-20T13:13:26.254Z,5.50
2019-03-20T13:14:26.211Z,3.70
2019-03-20T13:15:26.187Z,3.00
2019-03-20T13:16:26.142Z,2.80
2019-03-20T13:17:26.105Z,3.50
2019-03-20T13:18:26.076Z,2.50
2019-03-20T13:19:26.036Z,2.10
2019-03-20T13:20:25.998Z,2.50
2019-03-20T13:21:25.957Z,3.00
2019-03-20T13:22:25.919Z,3.00
2019-03-20T13:23:25.883Z,2.40
2019-03-20T13:24:25.851Z,3.80
2019-03-20T13:25:25.817Z,2.30
2019-03-20T13:26:25.782Z,2.60
2019-03-20T13:27:25.739Z,2.60
2019-03-20T13:28:25.704Z,4.10
2019-03-20T13:29:25.679Z,2.40
2019-03-20T13:30:25.636Z,2.70
2019-03-20T13:31:25.599Z,2.80
2019-03-20T13:32:25.556Z,2.90
2019-03-20T13:33:26.310Z,3.10
2019-03-20T13:34:25.486Z,2.20
2019-03-20T13:35:25.444Z,3.30
2019-03-20T13:36:25.408Z,2.30
2019-03-20T13:37:25.373Z,2.50
2019-03-20T13:38:25.339Z,3.80
2019-03-20T13:39:25.301Z,4.30
2019-03-20T13:40:25.267Z,2.50